sensor_id;sensor_type;location;lat;lon;timestamp;P1;durP1;ratioP1;P2;durP2;ratioP2
19105;SDS011;9685;54.338;18.672;2023-09-30T00:01:57;18.03;;;16.17;;
19105;SDS011;9685;54.338;18.672;2023-09-30T00:04:24;21.60;;;16.87;;
19105;SDS011;9685;54.338;18.672;2023-09-30T00:06:52;23.33;;;17.40;;
19105;SDS011;9685;54.338;18.672;2023-09-30T00:09:20;22.73;;;18.40;;
19105;SDS011;9685;54.338;18.672;2023-09-30T00:11:48;23.23;;;19.83;;
19105;SDS011;9685;54.338;18.672;2023-09-30T00:14:14;22.63;;;19.03;;
19105;SDS011;9685;54.338;18.672;2023-09-30T00:16:42;24.87;;;19.90;;
19105;SDS011;9685;54.338;18.672;2023-09-30T00:19:09;25.50;;;20.50;;
19105;SDS011;9685;54.338;18.672;2023-09-30T00:21:36;25.17;;;21.33;;
19105;SDS011;9685;54.338;18.672;2023-09-30T00:24:03;29.00;;;21.47;;
19105;SDS011;9685;54.338;18.672;2023-09-30T00:26:31;28.67;;;22.23;;
19105;SDS011;9685;54.338;18.672;2023-09-30T00:28:58;28.97;;;22.63;;
19105;SDS011;9685;54.338;18.672;2023-09-30T00:31:29;25.23;;;21.57;;
19105;SDS011;9685;54.338;18.672;2023-09-30T00:33:56;28.93;;;23.17;;
19105;SDS011;9685;54.338;18.672;2023-09-30T00:36:22;26.33;;;21.47;;
19105;SDS011;9685;54.338;18.672;2023-09-30T00:38:49;24.07;;;21.10;;
19105;SDS011;9685;54.338;18.672;2023-09-30T00:41:17;32.97;;;26.47;;
19105;SDS011;9685;54.338;18.672;2023-09-30T00:43:46;34.73;;;28.67;;
19105;SDS011;9685;54.338;18.672;2023-09-30T00:46:15;38.17;;;28.30;;
19105;SDS011;9685;54.338;18.672;2023-09-30T00:48:50;33.77;;;27.27;;
19105;SDS011;9685;54.338;18.672;2023-09-30T00:51:17;38.50;;;28.47;;
19105;SDS011;9685;54.338;18.672;2023-09-30T00:53:44;38.40;;;28.63;;
19105;SDS011;9685;54.338;18.672;2023-09-30T00:56:11;39.80;;;29.57;;
19105;SDS011;9685;54.338;18.672;2023-09-30T00:58:39;40.57;;;30.67;;
19105;SDS011;9685;54.338;18.672;2023-09-30T01:01:08;37.77;;;30.00;;
19105;SDS011;9685;54.338;18.672;2023-09-30T01:03:36;38.30;;;28.93;;
19105;SDS011;9685;54.338;18.672;2023-09-30T01:06:03;38.40;;;30.37;;
19105;SDS011;9685;54.338;18.672;2023-09-30T01:08:31;34.60;;;28.37;;
19105;SDS011;9685;54.338;18.672;2023-09-30T01:10:59;35.43;;;28.37;;
19105;SDS011;9685;54.338;18.672;2023-09-30T01:13:31;33.60;;;28.20;;
19105;SDS011;9685;54.338;18.672;2023-09-30T01:15:58;37.83;;;29.67;;
19105;SDS011;9685;54.338;18.672;2023-09-30T01:18:30;38.80;;;29.17;;
19105;SDS011;9685;54.338;18.672;2023-09-30T01:20:56;35.13;;;28.03;;
19105;SDS011;9685;54.338;18.672;2023-09-30T01:23:26;37.47;;;27.77;;
19105;SDS011;9685;54.338;18.672;2023-09-30T01:25:54;30.00;;;25.53;;
19105;SDS011;9685;54.338;18.672;2023-09-30T01:28:21;33.73;;;25.93;;
19105;SDS011;9685;54.338;18.672;2023-09-30T01:30:48;29.73;;;24.87;;
19105;SDS011;9685;54.338;18.672;2023-09-30T01:33:15;29.10;;;24.33;;
19105;SDS011;9685;54.338;18.672;2023-09-30T01:35:44;33.97;;;26.07;;
19105;SDS011;9685;54.338;18.672;2023-09-30T01:38:11;33.33;;;25.33;;
19105;SDS011;9685;54.338;18.672;2023-09-30T01:40:39;33.63;;;25.03;;
19105;SDS011;9685;54.338;18.672;2023-09-30T01:43:07;31.33;;;25.80;;
19105;SDS011;9685;54.338;18.672;2023-09-30T01:45:34;32.67;;;25.77;;
19105;SDS011;9685;54.338;18.672;2023-09-30T01:48:01;33.37;;;26.37;;
19105;SDS011;9685;54.338;18.672;2023-09-30T01:50:28;31.27;;;25.83;;
19105;SDS011;9685;54.338;18.672;2023-09-30T01:52:56;31.40;;;26.03;;
19105;SDS011;9685;54.338;18.672;2023-09-30T01:55:23;32.07;;;25.70;;
19105;SDS011;9685;54.338;18.672;2023-09-30T01:57:51;30.60;;;25.30;;
19105;SDS011;9685;54.338;18.672;2023-09-30T02:00:18;33.83;;;24.87;;
19105;SDS011;9685;54.338;18.672;2023-09-30T02:02:45;31.33;;;25.67;;
19105;SDS011;9685;54.338;18.672;2023-09-30T02:05:12;31.47;;;25.63;;
19105;SDS011;9685;54.338;18.672;2023-09-30T02:07:39;31.67;;;26.00;;
19105;SDS011;9685;54.338;18.672;2023-09-30T02:10:07;30.53;;;25.33;;
19105;SDS011;9685;54.338;18.672;2023-09-30T02:12:34;31.93;;;25.33;;
19105;SDS011;9685;54.338;18.672;2023-09-30T02:15:04;37.43;;;25.63;;
19105;SDS011;9685;54.338;18.672;2023-09-30T02:17:32;29.87;;;23.97;;
19105;SDS011;9685;54.338;18.672;2023-09-30T02:19:59;33.23;;;25.97;;
19105;SDS011;9685;54.338;18.672;2023-09-30T02:22:31;29.67;;;24.67;;
19105;SDS011;9685;54.338;18.672;2023-09-30T02:24:58;28.20;;;24.17;;
19105;SDS011;9685;54.338;18.672;2023-09-30T02:27:25;31.67;;;24.17;;
19105;SDS011;9685;54.338;18.672;2023-09-30T02:29:52;28.73;;;23.30;;
19105;SDS011;9685;54.338;18.672;2023-09-30T02:32:21;25.27;;;19.10;;
19105;SDS011;9685;54.338;18.672;2023-09-30T02:34:49;22.33;;;18.47;;
19105;SDS011;9685;54.338;18.672;2023-09-30T02:37:16;25.60;;;19.07;;
19105;SDS011;9685;54.338;18.672;2023-09-30T02:39:44;22.37;;;18.47;;
19105;SDS011;9685;54.338;18.672;2023-09-30T02:42:11;27.33;;;18.57;;
19105;SDS011;9685;54.338;18.672;2023-09-30T02:44:37;23.93;;;19.90;;
19105;SDS011;9685;54.338;18.672;2023-09-30T02:47:04;23.00;;;18.20;;
19105;SDS011;9685;54.338;18.672;2023-09-30T02:49:33;21.67;;;18.37;;
19105;SDS011;9685;54.338;18.672;2023-09-30T02:52:00;26.80;;;19.87;;
19105;SDS011;9685;54.338;18.672;2023-09-30T02:54:27;23.33;;;17.87;;
19105;SDS011;9685;54.338;18.672;2023-09-30T02:56:55;21.57;;;17.53;;
19105;SDS011;9685;54.338;18.672;2023-09-30T02:59:22;20.57;;;17.80;;
19105;SDS011;9685;54.338;18.672;2023-09-30T03:01:50;22.03;;;17.50;;
19105;SDS011;9685;54.338;18.672;2023-09-30T03:04:16;24.17;;;18.00;;
19105;SDS011;9685;54.338;18.672;2023-09-30T03:06:46;21.43;;;18.20;;
19105;SDS011;9685;54.338;18.672;2023-09-30T03:09:14;20.40;;;17.33;;
19105;SDS011;9685;54.338;18.672;2023-09-30T03:11:41;24.47;;;19.60;;
19105;SDS011;9685;54.338;18.672;2023-09-30T03:14:09;22.23;;;17.47;;
19105;SDS011;9685;54.338;18.672;2023-09-30T03:16:36;20.33;;;17.73;;
19105;SDS011;9685;54.338;18.672;2023-09-30T03:19:04;22.17;;;16.30;;
19105;SDS011;9685;54.338;18.672;2023-09-30T03:21:34;20.87;;;17.00;;
19105;SDS011;9685;54.338;18.672;2023-09-30T03:24:03;21.80;;;17.17;;
19105;SDS011;9685;54.338;18.672;2023-09-30T03:26:33;19.37;;;16.77;;
19105;SDS011;9685;54.338;18.672;2023-09-30T03:29:00;20.60;;;16.30;;
19105;SDS011;9685;54.338;18.672;2023-09-30T03:31:28;18.03;;;15.37;;
19105;SDS011;9685;54.338;18.672;2023-09-30T03:33:55;19.23;;;16.30;;
19105;SDS011;9685;54.338;18.672;2023-09-30T03:36:22;23.17;;;18.43;;
19105;SDS011;9685;54.338;18.672;2023-09-30T03:38:50;20.67;;;16.83;;
19105;SDS011;9685;54.338;18.672;2023-09-30T03:41:21;18.50;;;15.43;;
19105;SDS011;9685;54.338;18.672;2023-09-30T03:43:48;20.60;;;14.90;;
19105;SDS011;9685;54.338;18.672;2023-09-30T03:46:15;22.33;;;15.03;;
19105;SDS011;9685;54.338;18.672;2023-09-30T03:48:42;17.47;;;13.77;;
19105;SDS011;9685;54.338;18.672;2023-09-30T03:51:10;16.27;;;13.60;;
19105;SDS011;9685;54.338;18.672;2023-09-30T03:53:39;17.10;;;11.97;;
19105;SDS011;9685;54.338;18.672;2023-09-30T03:56:05;11.90;;;6.90;;
19105;SDS011;9685;54.338;18.672;2023-09-30T03:58:34;6.27;;;4.23;;
19105;SDS011;9685;54.338;18.672;2023-09-30T04:01:03;8.07;;;4.80;;
19105;SDS011;9685;54.338;18.672;2023-09-30T04:03:31;4.93;;;3.50;;
19105;SDS011;9685;54.338;18.672;2023-09-30T04:05:58;8.03;;;3.30;;
19105;SDS011;9685;54.338;18.672;2023-09-30T04:08:25;6.67;;;2.90;;
19105;SDS011;9685;54.338;18.672;2023-09-30T04:10:52;8.00;;;3.13;;
19105;SDS011;9685;54.338;18.672;2023-09-30T04:13:19;3.93;;;2.50;;
19105;SDS011;9685;54.338;18.672;2023-09-30T04:15:48;4.50;;;2.50;;
19105;SDS011;9685;54.338;18.672;2023-09-30T04:18:14;4.57;;;2.30;;
19105;SDS011;9685;54.338;18.672;2023-09-30T04:20:42;3.27;;;2.00;;
19105;SDS011;9685;54.338;18.672;2023-09-30T04:23:10;6.60;;;2.47;;
19105;SDS011;9685;54.338;18.672;2023-09-30T04:25:37;5.83;;;2.03;;
19105;SDS011;9685;54.338;18.672;2023-09-30T04:28:05;5.07;;;1.87;;
19105;SDS011;9685;54.338;18.672;2023-09-30T04:30:33;4.57;;;2.10;;
19105;SDS011;9685;54.338;18.672;2023-09-30T04:33:02;4.27;;;2.00;;
19105;SDS011;9685;54.338;18.672;2023-09-30T04:35:31;5.00;;;1.97;;
19105;SDS011;9685;54.338;18.672;2023-09-30T04:38:00;4.23;;;1.87;;
19105;SDS011;9685;54.338;18.672;2023-09-30T04:40:27;5.20;;;1.80;;
19105;SDS011;9685;54.338;18.672;2023-09-30T04:42:54;5.57;;;1.90;;
19105;SDS011;9685;54.338;18.672;2023-09-30T04:45:23;4.27;;;1.73;;
19105;SDS011;9685;54.338;18.672;2023-09-30T04:47:51;5.07;;;2.00;;
19105;SDS011;9685;54.338;18.672;2023-09-30T04:50:19;4.30;;;2.30;;
19105;SDS011;9685;54.338;18.672;2023-09-30T04:52:47;4.23;;;1.97;;
19105;SDS011;9685;54.338;18.672;2023-09-30T04:55:15;6.37;;;2.43;;
19105;SDS011;9685;54.338;18.672;2023-09-30T04:57:43;9.03;;;2.57;;
19105;SDS011;9685;54.338;18.672;2023-09-30T05:00:11;6.57;;;2.70;;
19105;SDS011;9685;54.338;18.672;2023-09-30T05:02:39;10.00;;;2.60;;
19105;SDS011;9685;54.338;18.672;2023-09-30T05:05:06;8.10;;;2.90;;
19105;SDS011;9685;54.338;18.672;2023-09-30T05:07:35;9.20;;;3.10;;
19105;SDS011;9685;54.338;18.672;2023-09-30T05:10:02;9.67;;;3.43;;
19105;SDS011;9685;54.338;18.672;2023-09-30T05:12:35;8.77;;;2.97;;
19105;SDS011;9685;54.338;18.672;2023-09-30T05:15:02;8.33;;;3.03;;
19105;SDS011;9685;54.338;18.672;2023-09-30T05:17:31;13.60;;;3.70;;
19105;SDS011;9685;54.338;18.672;2023-09-30T05:19:58;7.90;;;3.50;;
19105;SDS011;9685;54.338;18.672;2023-09-30T05:22:25;9.77;;;3.60;;
19105;SDS011;9685;54.338;18.672;2023-09-30T05:24:53;9.33;;;3.40;;
19105;SDS011;9685;54.338;18.672;2023-09-30T05:27:21;10.93;;;3.50;;
19105;SDS011;9685;54.338;18.672;2023-09-30T05:29:48;10.53;;;3.60;;
19105;SDS011;9685;54.338;18.672;2023-09-30T05:32:15;11.83;;;3.63;;
19105;SDS011;9685;54.338;18.672;2023-09-30T05:34:43;11.23;;;3.97;;
19105;SDS011;9685;54.338;18.672;2023-09-30T05:37:10;11.33;;;3.70;;
19105;SDS011;9685;54.338;18.672;2023-09-30T05:39:37;14.93;;;4.30;;
19105;SDS011;9685;54.338;18.672;2023-09-30T05:42:06;11.53;;;3.90;;
19105;SDS011;9685;54.338;18.672;2023-09-30T05:44:35;12.97;;;3.60;;
19105;SDS011;9685;54.338;18.672;2023-09-30T05:47:02;9.77;;;3.50;;
19105;SDS011;9685;54.338;18.672;2023-09-30T05:49:30;12.20;;;3.80;;
19105;SDS011;9685;54.338;18.672;2023-09-30T05:51:57;8.63;;;3.33;;
19105;SDS011;9685;54.338;18.672;2023-09-30T05:54:24;9.73;;;3.77;;
19105;SDS011;9685;54.338;18.672;2023-09-30T05:56:51;8.73;;;3.77;;
19105;SDS011;9685;54.338;18.672;2023-09-30T05:59:19;12.73;;;3.60;;
19105;SDS011;9685;54.338;18.672;2023-09-30T06:01:46;13.07;;;4.10;;
19105;SDS011;9685;54.338;18.672;2023-09-30T06:04:14;13.17;;;4.53;;
19105;SDS011;9685;54.338;18.672;2023-09-30T06:06:41;10.47;;;3.80;;
19105;SDS011;9685;54.338;18.672;2023-09-30T06:09:08;14.80;;;3.80;;
19105;SDS011;9685;54.338;18.672;2023-09-30T06:11:36;9.97;;;3.47;;
19105;SDS011;9685;54.338;18.672;2023-09-30T06:14:03;12.43;;;3.67;;
19105;SDS011;9685;54.338;18.672;2023-09-30T06:16:32;11.57;;;3.93;;
19105;SDS011;9685;54.338;18.672;2023-09-30T06:19:00;12.40;;;3.90;;
19105;SDS011;9685;54.338;18.672;2023-09-30T06:21:28;13.87;;;3.80;;
19105;SDS011;9685;54.338;18.672;2023-09-30T06:23:55;11.63;;;3.93;;
19105;SDS011;9685;54.338;18.672;2023-09-30T06:26:22;10.63;;;4.00;;
19105;SDS011;9685;54.338;18.672;2023-09-30T06:28:52;16.67;;;3.90;;
19105;SDS011;9685;54.338;18.672;2023-09-30T06:31:21;12.27;;;3.53;;
19105;SDS011;9685;54.338;18.672;2023-09-30T06:33:49;10.83;;;3.70;;
19105;SDS011;9685;54.338;18.672;2023-09-30T06:36:16;9.37;;;4.23;;
19105;SDS011;9685;54.338;18.672;2023-09-30T06:38:43;12.90;;;3.70;;
19105;SDS011;9685;54.338;18.672;2023-09-30T06:41:15;14.70;;;4.77;;
19105;SDS011;9685;54.338;18.672;2023-09-30T06:43:43;16.80;;;6.47;;
19105;SDS011;9685;54.338;18.672;2023-09-30T06:46:10;13.93;;;4.10;;
19105;SDS011;9685;54.338;18.672;2023-09-30T06:48:38;12.97;;;4.13;;
19105;SDS011;9685;54.338;18.672;2023-09-30T06:51:07;13.23;;;4.57;;
19105;SDS011;9685;54.338;18.672;2023-09-30T06:53:40;17.47;;;4.37;;
19105;SDS011;9685;54.338;18.672;2023-09-30T06:56:06;10.73;;;4.63;;
19105;SDS011;9685;54.338;18.672;2023-09-30T06:58:34;14.33;;;3.77;;
19105;SDS011;9685;54.338;18.672;2023-09-30T07:01:01;13.47;;;4.00;;
19105;SDS011;9685;54.338;18.672;2023-09-30T07:03:27;13.20;;;4.00;;
19105;SDS011;9685;54.338;18.672;2023-09-30T07:05:55;12.10;;;4.00;;
19105;SDS011;9685;54.338;18.672;2023-09-30T07:08:23;12.60;;;4.27;;
19105;SDS011;9685;54.338;18.672;2023-09-30T07:10:51;10.80;;;3.40;;
19105;SDS011;9685;54.338;18.672;2023-09-30T07:13:18;9.87;;;3.97;;
19105;SDS011;9685;54.338;18.672;2023-09-30T07:15:45;11.10;;;4.10;;
19105;SDS011;9685;54.338;18.672;2023-09-30T07:18:12;10.67;;;3.80;;
19105;SDS011;9685;54.338;18.672;2023-09-30T07:20:39;13.53;;;4.23;;
19105;SDS011;9685;54.338;18.672;2023-09-30T07:23:06;9.87;;;3.67;;
19105;SDS011;9685;54.338;18.672;2023-09-30T07:25:35;10.30;;;3.30;;
19105;SDS011;9685;54.338;18.672;2023-09-30T07:28:02;11.50;;;3.40;;
19105;SDS011;9685;54.338;18.672;2023-09-30T07:30:30;10.43;;;3.90;;
19105;SDS011;9685;54.338;18.672;2023-09-30T07:32:57;11.97;;;3.53;;
19105;SDS011;9685;54.338;18.672;2023-09-30T07:35:23;10.70;;;3.87;;
19105;SDS011;9685;54.338;18.672;2023-09-30T07:37:50;12.93;;;3.50;;
19105;SDS011;9685;54.338;18.672;2023-09-30T07:40:18;12.87;;;3.40;;
19105;SDS011;9685;54.338;18.672;2023-09-30T07:42:47;8.90;;;3.30;;
19105;SDS011;9685;54.338;18.672;2023-09-30T07:45:15;9.93;;;3.10;;
19105;SDS011;9685;54.338;18.672;2023-09-30T07:47:43;14.03;;;3.93;;
19105;SDS011;9685;54.338;18.672;2023-09-30T07:50:11;10.10;;;3.57;;
19105;SDS011;9685;54.338;18.672;2023-09-30T07:52:38;10.13;;;3.60;;
19105;SDS011;9685;54.338;18.672;2023-09-30T07:55:07;10.93;;;3.53;;
19105;SDS011;9685;54.338;18.672;2023-09-30T07:57:34;14.43;;;3.80;;
19105;SDS011;9685;54.338;18.672;2023-09-30T08:00:03;12.57;;;3.70;;
19105;SDS011;9685;54.338;18.672;2023-09-30T08:02:34;8.13;;;3.10;;
19105;SDS011;9685;54.338;18.672;2023-09-30T08:05:01;13.60;;;3.40;;
19105;SDS011;9685;54.338;18.672;2023-09-30T08:07:28;9.80;;;3.70;;
19105;SDS011;9685;54.338;18.672;2023-09-30T08:09:55;10.90;;;3.03;;
19105;SDS011;9685;54.338;18.672;2023-09-30T08:12:23;9.97;;;3.40;;
19105;SDS011;9685;54.338;18.672;2023-09-30T08:14:50;10.43;;;3.40;;
19105;SDS011;9685;54.338;18.672;2023-09-30T08:17:19;11.80;;;3.53;;
19105;SDS011;9685;54.338;18.672;2023-09-30T08:19:45;9.30;;;3.57;;
19105;SDS011;9685;54.338;18.672;2023-09-30T08:22:13;13.53;;;3.50;;
19105;SDS011;9685;54.338;18.672;2023-09-30T08:24:40;13.67;;;3.63;;
19105;SDS011;9685;54.338;18.672;2023-09-30T08:27:07;13.80;;;3.53;;
19105;SDS011;9685;54.338;18.672;2023-09-30T08:29:33;11.60;;;3.50;;
19105;SDS011;9685;54.338;18.672;2023-09-30T08:32:02;11.63;;;2.80;;
19105;SDS011;9685;54.338;18.672;2023-09-30T08:34:30;8.70;;;3.17;;
19105;SDS011;9685;54.338;18.672;2023-09-30T08:36:58;9.20;;;3.17;;
19105;SDS011;9685;54.338;18.672;2023-09-30T08:39:26;8.63;;;2.97;;
19105;SDS011;9685;54.338;18.672;2023-09-30T08:41:54;8.73;;;2.90;;
19105;SDS011;9685;54.338;18.672;2023-09-30T08:44:22;8.97;;;2.70;;
19105;SDS011;9685;54.338;18.672;2023-09-30T08:46:49;9.90;;;2.73;;
19105;SDS011;9685;54.338;18.672;2023-09-30T08:49:18;11.30;;;3.03;;
19105;SDS011;9685;54.338;18.672;2023-09-30T08:51:48;7.53;;;2.90;;
19105;SDS011;9685;54.338;18.672;2023-09-30T08:54:15;9.23;;;3.00;;
19105;SDS011;9685;54.338;18.672;2023-09-30T08:56:43;10.67;;;3.00;;
19105;SDS011;9685;54.338;18.672;2023-09-30T08:59:13;7.77;;;2.53;;
19105;SDS011;9685;54.338;18.672;2023-09-30T09:01:42;8.30;;;2.90;;
19105;SDS011;9685;54.338;18.672;2023-09-30T09:04:09;11.77;;;3.03;;
19105;SDS011;9685;54.338;18.672;2023-09-30T09:06:36;10.87;;;3.67;;
19105;SDS011;9685;54.338;18.672;2023-09-30T09:09:14;10.57;;;3.23;;
19105;SDS011;9685;54.338;18.672;2023-09-30T09:11:42;8.37;;;3.07;;
19105;SDS011;9685;54.338;18.672;2023-09-30T09:14:09;10.57;;;2.87;;
19105;SDS011;9685;54.338;18.672;2023-09-30T09:16:36;7.63;;;2.80;;
19105;SDS011;9685;54.338;18.672;2023-09-30T09:19:13;11.27;;;2.80;;
19105;SDS011;9685;54.338;18.672;2023-09-30T09:21:52;11.27;;;2.60;;
19105;SDS011;9685;54.338;18.672;2023-09-30T09:24:27;8.10;;;2.57;;
19105;SDS011;9685;54.338;18.672;2023-09-30T09:29:41;7.83;;;2.67;;
19105;SDS011;9685;54.338;18.672;2023-09-30T09:32:11;11.03;;;2.80;;
19105;SDS011;9685;54.338;18.672;2023-09-30T09:34:39;6.47;;;2.43;;
19105;SDS011;9685;54.338;18.672;2023-09-30T09:37:13;8.23;;;2.77;;
19105;SDS011;9685;54.338;18.672;2023-09-30T09:39:49;8.23;;;2.70;;
19105;SDS011;9685;54.338;18.672;2023-09-30T09:42:23;8.27;;;3.00;;
19105;SDS011;9685;54.338;18.672;2023-09-30T09:44:52;10.53;;;2.77;;
19105;SDS011;9685;54.338;18.672;2023-09-30T09:47:22;11.00;;;3.70;;
19105;SDS011;9685;54.338;18.672;2023-09-30T09:49:50;6.83;;;3.00;;
19105;SDS011;9685;54.338;18.672;2023-09-30T09:52:18;9.57;;;2.80;;
19105;SDS011;9685;54.338;18.672;2023-09-30T09:54:46;8.83;;;3.07;;
19105;SDS011;9685;54.338;18.672;2023-09-30T09:57:14;13.63;;;2.87;;
19105;SDS011;9685;54.338;18.672;2023-09-30T09:59:43;11.00;;;2.87;;
19105;SDS011;9685;54.338;18.672;2023-09-30T10:02:12;10.50;;;2.43;;
19105;SDS011;9685;54.338;18.672;2023-09-30T10:04:40;11.13;;;3.17;;
19105;SDS011;9685;54.338;18.672;2023-09-30T10:07:09;11.27;;;3.17;;
19105;SDS011;9685;54.338;18.672;2023-09-30T10:09:41;7.93;;;2.67;;
19105;SDS011;9685;54.338;18.672;2023-09-30T10:12:12;7.07;;;2.37;;
19105;SDS011;9685;54.338;18.672;2023-09-30T10:14:42;8.20;;;2.53;;
19105;SDS011;9685;54.338;18.672;2023-09-30T10:17:09;10.90;;;3.07;;
19105;SDS011;9685;54.338;18.672;2023-09-30T10:19:36;7.65;;;2.63;;
19105;SDS011;9685;54.338;18.672;2023-09-30T10:22:31;13.98;;;3.05;;
19105;SDS011;9685;54.338;18.672;2023-09-30T10:24:59;9.68;;;3.13;;
19105;SDS011;9685;54.338;18.672;2023-09-30T10:27:34;10.75;;;5.28;;
19105;SDS011;9685;54.338;18.672;2023-09-30T10:30:09;12.00;;;4.30;;
19105;SDS011;9685;54.338;18.672;2023-09-30T10:35:42;12.52;;;2.80;;
19105;SDS011;9685;54.338;18.672;2023-09-30T10:41:05;7.90;;;2.85;;
19105;SDS011;9685;54.338;18.672;2023-09-30T10:43:35;9.70;;;2.83;;
19105;SDS011;9685;54.338;18.672;2023-09-30T10:46:03;9.85;;;2.92;;
19105;SDS011;9685;54.338;18.672;2023-09-30T10:48:51;10.07;;;2.92;;
19105;SDS011;9685;54.338;18.672;2023-09-30T10:51:18;10.60;;;3.35;;
19105;SDS011;9685;54.338;18.672;2023-09-30T10:53:47;10.87;;;2.80;;
19105;SDS011;9685;54.338;18.672;2023-09-30T10:56:16;9.35;;;3.10;;
19105;SDS011;9685;54.338;18.672;2023-09-30T10:58:46;12.07;;;3.13;;
19105;SDS011;9685;54.338;18.672;2023-09-30T11:01:14;11.97;;;3.40;;
19105;SDS011;9685;54.338;18.672;2023-09-30T11:03:43;9.27;;;2.90;;
19105;SDS011;9685;54.338;18.672;2023-09-30T11:06:11;15.60;;;3.10;;
19105;SDS011;9685;54.338;18.672;2023-09-30T11:08:44;9.63;;;2.80;;
19105;SDS011;9685;54.338;18.672;2023-09-30T11:11:12;11.20;;;3.10;;
19105;SDS011;9685;54.338;18.672;2023-09-30T11:13:40;13.23;;;3.43;;
19105;SDS011;9685;54.338;18.672;2023-09-30T11:16:08;11.60;;;2.90;;
19105;SDS011;9685;54.338;18.672;2023-09-30T11:18:35;12.27;;;3.30;;
19105;SDS011;9685;54.338;18.672;2023-09-30T11:21:04;9.45;;;3.30;;
19105;SDS011;9685;54.338;18.672;2023-09-30T11:23:33;10.45;;;3.85;;
19105;SDS011;9685;54.338;18.672;2023-09-30T11:26:01;11.40;;;3.42;;
19105;SDS011;9685;54.338;18.672;2023-09-30T11:28:36;9.80;;;4.20;;
19105;SDS011;9685;54.338;18.672;2023-09-30T11:31:07;10.25;;;3.70;;
19105;SDS011;9685;54.338;18.672;2023-09-30T11:33:49;10.25;;;3.55;;
19105;SDS011;9685;54.338;18.672;2023-09-30T11:36:18;10.68;;;3.80;;
19105;SDS011;9685;54.338;18.672;2023-09-30T11:38:46;7.30;;;2.72;;
19105;SDS011;9685;54.338;18.672;2023-09-30T11:41:14;9.95;;;2.67;;
19105;SDS011;9685;54.338;18.672;2023-09-30T11:43:57;7.28;;;2.60;;
19105;SDS011;9685;54.338;18.672;2023-09-30T11:46:28;7.53;;;2.92;;
19105;SDS011;9685;54.338;18.672;2023-09-30T11:48:58;8.20;;;3.10;;
19105;SDS011;9685;54.338;18.672;2023-09-30T11:51:26;13.40;;;3.20;;
19105;SDS011;9685;54.338;18.672;2023-09-30T11:53:53;6.95;;;3.10;;
19105;SDS011;9685;54.338;18.672;2023-09-30T11:56:21;11.07;;;3.90;;
19105;SDS011;9685;54.338;18.672;2023-09-30T11:58:53;6.97;;;3.03;;
19105;SDS011;9685;54.338;18.672;2023-09-30T12:01:20;11.55;;;3.65;;
19105;SDS011;9685;54.338;18.672;2023-09-30T12:03:49;11.73;;;3.28;;
19105;SDS011;9685;54.338;18.672;2023-09-30T12:06:17;8.32;;;3.17;;
19105;SDS011;9685;54.338;18.672;2023-09-30T12:08:43;12.18;;;3.30;;
19105;SDS011;9685;54.338;18.672;2023-09-30T12:11:11;8.02;;;2.92;;
19105;SDS011;9685;54.338;18.672;2023-09-30T12:13:40;10.10;;;3.10;;
19105;SDS011;9685;54.338;18.672;2023-09-30T12:16:09;10.02;;;3.63;;
19105;SDS011;9685;54.338;18.672;2023-09-30T12:18:38;11.27;;;3.55;;
19105;SDS011;9685;54.338;18.672;2023-09-30T12:21:07;11.75;;;3.28;;
19105;SDS011;9685;54.338;18.672;2023-09-30T12:23:35;9.95;;;2.97;;
19105;SDS011;9685;54.338;18.672;2023-09-30T12:26:02;13.50;;;3.10;;
19105;SDS011;9685;54.338;18.672;2023-09-30T12:28:30;10.85;;;3.03;;
19105;SDS011;9685;54.338;18.672;2023-09-30T12:30:58;8.57;;;3.05;;
19105;SDS011;9685;54.338;18.672;2023-09-30T12:33:27;9.43;;;2.85;;
19105;SDS011;9685;54.338;18.672;2023-09-30T12:35:55;9.35;;;3.20;;
19105;SDS011;9685;54.338;18.672;2023-09-30T12:38:24;9.98;;;2.92;;
19105;SDS011;9685;54.338;18.672;2023-09-30T12:40:52;7.85;;;2.83;;
19105;SDS011;9685;54.338;18.672;2023-09-30T12:43:20;11.45;;;3.70;;
19105;SDS011;9685;54.338;18.672;2023-09-30T12:45:48;7.63;;;3.03;;
19105;SDS011;9685;54.338;18.672;2023-09-30T12:48:15;8.57;;;2.92;;
19105;SDS011;9685;54.338;18.672;2023-09-30T12:50:42;11.02;;;3.00;;
19105;SDS011;9685;54.338;18.672;2023-09-30T12:53:09;11.57;;;3.00;;
19105;SDS011;9685;54.338;18.672;2023-09-30T12:55:38;9.13;;;2.88;;
19105;SDS011;9685;54.338;18.672;2023-09-30T12:58:04;10.32;;;3.00;;
19105;SDS011;9685;54.338;18.672;2023-09-30T13:00:31;9.85;;;2.97;;
19105;SDS011;9685;54.338;18.672;2023-09-30T13:02:59;12.27;;;3.25;;
19105;SDS011;9685;54.338;18.672;2023-09-30T13:05:26;8.98;;;3.22;;
19105;SDS011;9685;54.338;18.672;2023-09-30T13:07:54;7.22;;;2.83;;
19105;SDS011;9685;54.338;18.672;2023-09-30T13:10:21;7.68;;;2.90;;
19105;SDS011;9685;54.338;18.672;2023-09-30T13:12:50;6.95;;;2.55;;
19105;SDS011;9685;54.338;18.672;2023-09-30T13:15:18;7.57;;;2.83;;
19105;SDS011;9685;54.338;18.672;2023-09-30T13:17:46;8.18;;;2.65;;
19105;SDS011;9685;54.338;18.672;2023-09-30T13:20:13;7.50;;;3.05;;
19105;SDS011;9685;54.338;18.672;2023-09-30T13:22:40;5.72;;;2.55;;
19105;SDS011;9685;54.338;18.672;2023-09-30T13:25:07;9.23;;;2.85;;
19105;SDS011;9685;54.338;18.672;2023-09-30T13:27:37;10.82;;;2.95;;
19105;SDS011;9685;54.338;18.672;2023-09-30T13:30:06;8.25;;;2.80;;
19105;SDS011;9685;54.338;18.672;2023-09-30T13:32:35;7.30;;;2.72;;
19105;SDS011;9685;54.338;18.672;2023-09-30T13:35:02;11.75;;;3.30;;
19105;SDS011;9685;54.338;18.672;2023-09-30T13:37:30;8.35;;;3.00;;
19105;SDS011;9685;54.338;18.672;2023-09-30T13:39:58;7.13;;;2.97;;
19105;SDS011;9685;54.338;18.672;2023-09-30T13:42:26;9.30;;;2.88;;
19105;SDS011;9685;54.338;18.672;2023-09-30T13:44:53;9.73;;;2.80;;
19105;SDS011;9685;54.338;18.672;2023-09-30T13:47:24;6.30;;;2.60;;
19105;SDS011;9685;54.338;18.672;2023-09-30T13:49:51;8.60;;;2.63;;
19105;SDS011;9685;54.338;18.672;2023-09-30T13:52:20;11.98;;;3.10;;
19105;SDS011;9685;54.338;18.672;2023-09-30T13:54:47;6.65;;;2.50;;
19105;SDS011;9685;54.338;18.672;2023-09-30T13:57:14;7.05;;;2.75;;
19105;SDS011;9685;54.338;18.672;2023-09-30T13:59:41;11.80;;;3.15;;
19105;SDS011;9685;54.338;18.672;2023-09-30T14:02:08;7.72;;;2.33;;
19105;SDS011;9685;54.338;18.672;2023-09-30T14:04:36;11.48;;;3.38;;
19105;SDS011;9685;54.338;18.672;2023-09-30T14:07:03;8.40;;;2.80;;
19105;SDS011;9685;54.338;18.672;2023-09-30T14:09:33;10.00;;;2.70;;
19105;SDS011;9685;54.338;18.672;2023-09-30T14:12:00;9.65;;;3.38;;
19105;SDS011;9685;54.338;18.672;2023-09-30T14:14:30;6.53;;;2.70;;
19105;SDS011;9685;54.338;18.672;2023-09-30T14:16:57;6.97;;;2.47;;
19105;SDS011;9685;54.338;18.672;2023-09-30T14:19:24;8.48;;;3.03;;
19105;SDS011;9685;54.338;18.672;2023-09-30T14:21:52;11.40;;;2.80;;
19105;SDS011;9685;54.338;18.672;2023-09-30T14:24:19;9.95;;;3.00;;
19105;SDS011;9685;54.338;18.672;2023-09-30T14:26:46;7.97;;;2.87;;
19105;SDS011;9685;54.338;18.672;2023-09-30T14:29:13;10.20;;;2.83;;
19105;SDS011;9685;54.338;18.672;2023-09-30T14:31:40;11.40;;;2.93;;
19105;SDS011;9685;54.338;18.672;2023-09-30T14:34:07;15.53;;;6.97;;
19105;SDS011;9685;54.338;18.672;2023-09-30T14:36:34;12.50;;;5.13;;
19105;SDS011;9685;54.338;18.672;2023-09-30T14:39:03;10.53;;;3.83;;
19105;SDS011;9685;54.338;18.672;2023-09-30T14:41:30;8.33;;;3.00;;
19105;SDS011;9685;54.338;18.672;2023-09-30T14:44:00;11.60;;;3.17;;
19105;SDS011;9685;54.338;18.672;2023-09-30T14:46:28;13.90;;;3.80;;
19105;SDS011;9685;54.338;18.672;2023-09-30T14:48:55;8.80;;;3.40;;
19105;SDS011;9685;54.338;18.672;2023-09-30T14:51:22;15.13;;;4.00;;